Terminal Aerodrome Forecast
Issued by NWS

Home | Current Version | Previous Version | Text Only | Print | Product List | Glossary On
Versions: 1 2 3 4 5 6 7 8 9 10 11 12 13 14 15 16 17 18 19 20 21 22 23 24 25 26 27 28 29 30 31 32 33 34 35 36 37 38 39 40 41 42 43 44 45 46 47
000
FTUS44 KHGX 181134
TAFUTS
TAF
KUTS 181134Z 1812/1912 VRB02KT 1/2SM FG OVC004
      TEMPO 1812/1814 1/4SM FG VV001
     FM181400 20005KT P6SM SCT025 BKN250
     FM181900 22005KT P6SM VCTS FEW015 SCT025CB OVC120
     FM190100 VRB04KT P6SM SCT250
     FM190900 VRB03KT 6SM BR SCT015=

USA.gov is the U.S. government's official web portal to all federal, state and local government web resources and services.